Time;durP1;ratioP1;P1;durP2;ratioP2;P2;SDS_P1;SDS_P2;PMS_P1;PMS_P2;Temp;Humidity;BMP_temperature;BMP_pressure;BME280_temperature;BME280_humidity;BME280_pressure;Samples;Min_cycle;Max_cycle;Signal;HPM_P1;HPM_P2
2023/05/16 00:01:15;;;;;;;11.57;2.92;;;13.30;99.90;;;;;;6222060;23;20431;-90
2023/05/16 00:03:42;;;;;;;12.15;3.25;;;13.30;99.90;;;;;;6172414;23;20091;-90
2023/05/16 00:06:08;;;;;;;17.73;3.45;;;13.20;99.90;;;;;;6221876;23;20423;-89
2023/05/16 00:08:34;;;;;;;11.65;2.80;;;13.20;99.90;;;;;;6222097;23;20000;-89
2023/05/16 00:11:00;;;;;;;11.60;2.50;;;13.20;99.90;;;;;;6172310;23;20015;-90
2023/05/16 00:13:26;;;;;;;10.23;2.78;;;13.20;99.90;;;;;;6173524;23;20012;-93
2023/05/16 00:15:55;;;;;;;11.23;2.53;;;13.20;99.90;;;;;;6174087;23;20008;-92
2023/05/16 00:18:21;;;;;;;12.90;3.03;;;13.10;99.90;;;;;;6197980;23;20069;-92
2023/05/16 00:20:48;;;;;;;12.88;2.20;;;13.10;99.90;;;;;;6217382;23;20420;-93
2023/05/16 00:23:14;;;;;;;13.63;2.67;;;13.10;99.90;;;;;;6217829;23;20005;-93
2023/05/16 00:25:40;;;;;;;11.88;3.10;;;13.10;99.90;;;;;;6192850;23;20005;-92
2023/05/16 00:28:07;;;;;;;12.32;2.35;;;13.10;99.90;;;;;;6218112;23;20391;-94
2023/05/16 00:30:34;;;;;;;13.70;2.67;;;13.10;99.90;;;;;;6216829;23;20331;-90
2023/05/16 00:32:59;;;;;;;13.20;2.25;;;13.00;99.90;;;;;;6216976;23;20008;-90
2023/05/16 00:35:25;;;;;;;11.13;2.80;;;13.00;99.90;;;;;;6191578;23;20143;-90
2023/05/16 00:37:51;;;;;;;17.08;2.75;;;13.00;99.90;;;;;;6191410;23;20487;-90
2023/05/16 00:40:17;;;;;;;7.03;2.13;;;13.00;99.90;;;;;;6191482;23;20039;-90
2023/05/16 00:42:43;;;;;;;16.85;3.28;;;12.90;99.90;;;;;;6216342;23;20023;-90
2023/05/16 00:45:09;;;;;;;14.52;2.40;;;12.90;99.90;;;;;;6191158;23;20087;-89
2023/05/16 00:47:35;;;;;;;20.40;3.17;;;12.90;99.90;;;;;;6217507;23;20004;-92
2023/05/16 00:50:02;;;;;;;16.52;2.75;;;12.80;99.90;;;;;;6191987;23;20009;-91
2023/05/16 00:52:32;;;;;;;10.65;2.33;;;12.80;99.90;;;;;;6217198;23;20420;-92
2023/05/16 00:54:58;;;;;;;14.03;2.80;;;12.80;99.90;;;;;;6216194;23;20490;-89
2023/05/16 00:57:24;;;;;;;16.58;2.55;;;12.80;99.90;;;;;;6216103;23;20319;-89
2023/05/16 00:59:50;;;;;;;13.27;2.47;;;12.70;99.90;;;;;;6190751;23;20001;-90
2023/05/16 01:02:16;;;;;;;14.98;2.70;;;12.70;99.90;;;;;;6191560;23;20091;-90
2023/05/16 01:04:47;;;;;;;19.25;3.65;;;12.70;99.90;;;;;;6166036;23;20722;-90
2023/05/16 01:07:13;;;;;;;13.88;2.42;;;12.60;99.90;;;;;;6191470;23;20005;-89
2023/05/16 01:09:39;;;;;;;15.95;2.40;;;12.60;99.90;;;;;;6191706;23;20438;-90
2023/05/16 01:12:34;;;;;;;13.05;2.10;;;12.60;99.90;;;;;;6191513;23;20424;-90
2023/05/16 01:15:16;;;;;;;13.93;2.50;;;12.60;99.90;;;;;;6219151;23;20087;-89
2023/05/16 01:18:02;;;;;;;7.53;1.75;;;12.50;99.90;;;;;;6216223;23;20015;-89
2023/05/16 01:20:43;;;;;;;10.38;1.73;;;12.40;99.90;;;;;;6216607;23;20012;-91
2023/05/16 01:23:27;;;;;;;;;;;12.40;99.90;;;;;;6217673;23;20082;-91
2023/05/16 01:26:10;;;;;;;13.40;2.47;;;12.40;99.90;;;;;;6218376;23;20258;-91
2023/05/16 01:28:38;;;;;;;12.35;2.95;;;12.30;99.90;;;;;;6217652;23;20156;-92
2023/05/16 01:31:04;;;;;;;11.60;2.45;;;12.30;99.90;;;;;;6216960;23;20012;-90
2023/05/16 01:33:30;;;;;;;13.63;2.20;;;12.20;99.90;;;;;;6192051;23;20004;-92
2023/05/16 01:36:08;;;;;;;13.15;2.45;;;12.20;99.90;;;;;;6191555;23;20013;-90
2023/05/16 01:39:08;;;;;;;15.00;2.60;;;12.20;99.90;;;;;;6216397;23;20001;-89
2023/05/16 01:42:00;;;;;;;13.32;2.03;;;12.10;99.90;;;;;;6216177;23;20032;-91
2023/05/16 01:44:55;;;;;;;15.18;2.85;;;12.10;99.90;;;;;;6216272;23;20007;-91
2023/05/16 01:47:24;;;;;;;13.27;2.83;;;12.10;99.90;;;;;;6159497;23;20004;-91
2023/05/16 01:50:11;;;;;;;13.90;2.40;;;12.00;99.90;;;;;;6215828;23;20032;-92
2023/05/16 01:52:54;;;;;;;11.88;2.15;;;12.00;99.90;;;;;;6216552;23;20004;-89
2023/05/16 01:55:29;;;;;;;12.85;2.20;;;12.00;99.90;;;;;;6215950;23;20091;-89
2023/05/16 01:57:56;;;;;;;14.27;2.53;;;11.90;99.90;;;;;;6217521;23;20496;-90
2023/05/16 02:00:22;;;;;;;11.40;2.28;;;11.90;99.90;;;;;;6215891;23;20412;-90
2023/05/16 02:02:49;;;;;;;10.90;2.00;;;11.90;99.90;;;;;;6168424;23;20344;-89
2023/05/16 02:05:15;;;;;;;13.80;3.47;;;11.90;99.90;;;;;;6190654;23;20008;-90
2023/05/16 02:07:41;;;;;;;13.55;2.03;;;11.80;99.90;;;;;;6190818;23;20004;-90
2023/05/16 02:10:07;;;;;;;12.27;1.80;;;11.80;99.90;;;;;;6191084;23;20016;-92
2023/05/16 02:12:33;;;;;;;15.02;2.78;;;11.80;99.90;;;;;;6191458;23;20011;-92
2023/05/16 02:14:58;;;;;;;11.25;2.08;;;11.80;99.90;;;;;;6166235;23;20040;-91
2023/05/16 02:17:24;;;;;;;15.00;2.10;;;11.70;99.90;;;;;;6190606;23;20067;-92
2023/05/16 02:19:50;;;;;;;16.35;2.80;;;11.70;99.90;;;;;;6165405;23;20013;-92
2023/05/16 02:22:16;;;;;;;13.18;2.47;;;11.60;99.90;;;;;;6166242;23;20337;-92
2023/05/16 02:24:41;;;;;;;18.17;3.20;;;11.60;99.90;;;;;;6166250;23;20009;-91
2023/05/16 02:27:07;;;;;;;11.43;1.95;;;11.60;99.90;;;;;;6190689;23;20016;-89
2023/05/16 02:29:33;;;;;;;17.75;3.05;;;11.60;99.90;;;;;;6190489;23;20012;-88
2023/05/16 02:35:21;;;;;;;15.75;2.33;;;11.50;99.90;;;;;;6217205;23;20050;-91
2023/05/16 02:37:46;;;;;;;10.38;2.10;;;11.50;99.90;;;;;;6166601;23;20335;-91
2023/05/16 02:40:12;;;;;;;13.57;2.80;;;11.50;99.90;;;;;;6166031;23;20088;-92
2023/05/16 02:42:38;;;;;;;17.00;2.53;;;11.40;99.90;;;;;;6167789;23;20012;-91
2023/05/16 02:45:04;;;;;;;15.88;3.55;;;11.40;99.90;;;;;;6167809;23;20032;-91
2023/05/16 02:47:30;;;;;;;15.73;2.67;;;11.40;99.90;;;;;;6192952;23;20001;-90
2023/05/16 02:49:56;;;;;;;15.15;2.55;;;11.40;99.90;;;;;;6218702;23;20376;-89
2023/05/16 02:52:21;;;;;;;14.98;2.58;;;11.30;99.90;;;;;;6169811;23;20429;-90
2023/05/16 02:54:47;;;;;;;12.57;2.80;;;11.30;99.90;;;;;;6218339;23;19996;-89
2023/05/16 02:57:13;;;;;;;12.18;2.20;;;11.30;99.90;;;;;;6218525;23;20416;-90
2023/05/16 02:59:39;;;;;;;11.93;2.28;;;11.30;99.90;;;;;;6218637;23;19997;-91
2023/05/16 03:02:05;;;;;;;12.52;2.28;;;11.20;99.90;;;;;;6194448;23;20361;-91
2023/05/16 03:04:30;;;;;;;17.77;2.67;;;11.20;99.90;;;;;;6171973;23;20011;-92
2023/05/16 03:06:56;;;;;;;12.02;3.20;;;11.20;99.90;;;;;;6170627;23;20104;-91
2023/05/16 03:09:22;;;;;;;9.98;2.28;;;11.20;99.90;;;;;;6194518;23;20001;-93
2023/05/16 03:11:50;;;;;;;13.18;2.30;;;11.10;99.90;;;;;;6168392;23;20435;-93
2023/05/16 03:14:16;;;;;;;12.35;2.10;;;11.10;99.90;;;;;;6192732;23;20016;-90
2023/05/16 03:16:43;;;;;;;13.35;2.63;;;11.10;99.90;;;;;;6167876;23;20059;-91
2023/05/16 03:19:09;;;;;;;14.10;2.30;;;11.10;99.90;;;;;;6168673;23;20083;-91
2023/05/16 03:21:35;;;;;;;13.10;2.47;;;11.10;99.90;;;;;;6197595;23;20016;-92
2023/05/16 03:24:02;;;;;;;13.55;2.30;;;11.00;99.90;;;;;;6197678;23;20011;-91
2023/05/16 03:26:28;;;;;;;14.55;2.75;;;11.10;99.90;;;;;;6197367;23;20031;-91
2023/05/16 03:28:54;;;;;;;14.18;2.15;;;11.00;99.90;;;;;;6197749;23;20005;-93
2023/05/16 03:31:20;;;;;;;14.00;3.38;;;11.00;99.90;;;;;;6172754;23;20012;-91
2023/05/16 03:33:45;;;;;;;13.95;2.38;;;11.00;99.90;;;;;;6197057;23;20014;-90
2023/05/16 03:36:11;;;;;;;17.50;2.22;;;11.00;99.90;;;;;;6171968;23;20386;-91
2023/05/16 03:38:37;;;;;;;11.38;2.90;;;11.00;99.90;;;;;;6197157;23;20008;-92
2023/05/16 03:41:02;;;;;;;13.68;1.95;;;11.00;99.90;;;;;;6172338;23;20069;-90
2023/05/16 03:43:28;;;;;;;11.05;2.50;;;11.00;99.90;;;;;;6197279;23;20427;-91
2023/05/16 03:45:54;;;;;;;10.32;2.65;;;11.00;99.90;;;;;;6196996;23;20008;-91
2023/05/16 03:48:20;;;;;;;10.57;2.17;;;11.00;99.90;;;;;;6196974;23;20011;-90
2023/05/16 03:50:46;;;;;;;13.45;2.10;;;11.00;99.90;;;;;;6222424;23;20454;-91
2023/05/16 03:53:12;;;;;;;14.75;2.35;;;11.00;99.90;;;;;;6196634;23;20096;-91
2023/05/16 03:55:38;;;;;;;12.85;2.40;;;11.00;99.90;;;;;;6198098;23;20428;-91
2023/05/16 03:58:04;;;;;;;16.52;2.53;;;11.00;99.90;;;;;;6172368;23;20012;-91
2023/05/16 04:00:30;;;;;;;13.25;2.05;;;10.90;99.90;;;;;;6197332;23;20313;-90
2023/05/16 04:02:55;;;;;;;13.98;2.30;;;10.90;99.90;;;;;;6198806;23;20008;-92
2023/05/16 04:05:21;;;;;;;13.68;2.20;;;10.90;99.90;;;;;;6173485;23;20027;-89
2023/05/16 04:07:47;;;;;;;13.38;2.65;;;10.90;99.90;;;;;;6198467;23;20077;-89
2023/05/16 04:10:13;;;;;;;14.98;2.20;;;10.90;99.90;;;;;;6198340;23;20343;-89
2023/05/16 04:12:39;;;;;;;17.48;2.72;;;10.90;99.90;;;;;;6223833;23;20000;-90
2023/05/16 04:15:05;;;;;;;16.98;2.67;;;10.90;99.90;;;;;;6198038;23;20115;-92
2023/05/16 04:17:31;;;;;;;16.35;2.70;;;10.90;99.90;;;;;;6197992;23;20034;-92
2023/05/16 04:19:58;;;;;;;8.63;2.30;;;10.90;99.90;;;;;;6173095;23;20077;-92
2023/05/16 04:22:25;;;;;;;11.82;2.33;;;10.90;99.90;;;;;;6197307;23;20442;-91
2023/05/16 04:24:51;;;;;;;12.48;2.33;;;10.90;99.90;;;;;;6196975;23;20082;-90
2023/05/16 04:27:17;;;;;;;10.23;2.20;;;10.90;99.90;;;;;;6197026;23;20427;-91
2023/05/16 04:29:43;;;;;;;14.98;3.08;;;11.00;99.90;;;;;;6222031;23;20416;-91
2023/05/16 04:32:09;;;;;;;12.82;2.13;;;11.00;99.90;;;;;;6221984;23;20010;-91
2023/05/16 04:34:36;;;;;;;15.73;2.78;;;11.00;99.90;;;;;;6198037;23;20039;-91
2023/05/16 04:37:06;;;;;;;12.45;2.08;;;11.00;99.90;;;;;;6198842;23;20396;-90
2023/05/16 04:39:32;;;;;;;8.60;2.22;;;11.00;99.90;;;;;;6172527;23;20335;-90
2023/05/16 04:41:58;;;;;;;14.10;2.83;;;11.00;99.90;;;;;;6172393;23;20374;-91
2023/05/16 04:44:27;;;;;;;10.25;2.33;;;11.00;99.90;;;;;;6171921;23;20059;-90
2023/05/16 04:46:53;;;;;;;14.63;3.20;;;11.00;99.90;;;;;;6221771;23;20423;-91
2023/05/16 04:49:19;;;;;;;13.10;2.30;;;11.00;99.90;;;;;;6171619;23;20034;-90
2023/05/16 04:51:46;;;;;;;12.32;2.35;;;11.00;99.90;;;;;;6172357;23;20071;-90
2023/05/16 04:54:12;;;;;;;14.57;2.50;;;11.00;99.90;;;;;;6196466;23;20008;-91
2023/05/16 04:56:37;;;;;;;12.57;2.28;;;11.00;99.90;;;;;;6171346;23;20422;-93
2023/05/16 04:59:03;;;;;;;12.48;3.05;;;11.00;99.90;;;;;;6171737;23;20008;-91
2023/05/16 05:01:29;;;;;;;11.65;2.30;;;11.00;99.90;;;;;;6196275;23;20012;-91
2023/05/16 05:03:55;;;;;;;15.32;2.60;;;11.00;99.90;;;;;;6221536;23;20018;-91
2023/05/16 05:06:21;;;;;;;14.02;2.65;;;11.00;99.90;;;;;;6196605;23;20039;-91
2023/05/16 05:08:47;;;;;;;13.18;2.97;;;11.00;99.90;;;;;;6222906;23;20007;-88
2023/05/16 05:11:13;;;;;;;15.20;3.00;;;11.00;99.90;;;;;;6173700;23;20012;-90
2023/05/16 05:13:38;;;;;;;16.88;3.17;;;11.00;99.90;;;;;;6173014;23;20008;-92
2023/05/16 05:16:07;;;;;;;19.33;3.55;;;11.00;99.90;;;;;;6197669;23;20011;-90
2023/05/16 05:18:33;;;;;;;13.75;2.50;;;11.00;99.90;;;;;;6204627;23;20046;-89
2023/05/16 05:20:59;;;;;;;12.93;2.58;;;10.90;99.90;;;;;;6191844;23;20088;-90
2023/05/16 05:23:25;;;;;;;9.40;2.50;;;10.90;99.90;;;;;;6192441;23;20313;-89
2023/05/16 05:25:50;;;;;;;18.83;3.80;;;11.00;99.90;;;;;;6216583;23;20079;-90
2023/05/16 05:28:16;;;;;;;11.40;2.30;;;11.00;99.90;;;;;;6191740;23;20012;-90
2023/05/16 05:30:42;;;;;;;16.77;2.70;;;10.90;99.90;;;;;;6216392;23;20546;-89
2023/05/16 05:33:11;;;;;;;17.10;3.22;;;11.00;99.90;;;;;;6191351;23;20012;-89
2023/05/16 05:35:36;;;;;;;13.10;2.30;;;11.00;99.90;;;;;;6216013;23;20004;-89
2023/05/16 05:38:03;;;;;;;16.10;3.40;;;11.00;99.90;;;;;;6191208;23;20024;-89
2023/05/16 05:40:28;;;;;;;15.90;2.20;;;11.00;99.90;;;;;;6166359;23;20005;-89
2023/05/16 05:42:54;;;;;;;16.65;2.63;;;11.10;99.90;;;;;;6216061;23;20372;-89
2023/05/16 05:45:20;;;;;;;14.30;2.80;;;11.00;99.90;;;;;;6191343;23;20080;-88
2023/05/16 05:47:46;;;;;;;14.55;3.17;;;11.10;99.90;;;;;;6165888;23;20009;-88
2023/05/16 05:50:13;;;;;;;14.43;3.15;;;11.10;99.90;;;;;;6192006;23;20009;-88
2023/05/16 05:52:39;;;;;;;10.75;3.05;;;11.10;99.90;;;;;;6216117;23;19997;-89
2023/05/16 05:55:06;;;;;;;10.73;2.75;;;11.10;99.90;;;;;;6167768;23;20020;-89
2023/05/16 05:57:32;;;;;;;12.40;2.65;;;11.10;99.90;;;;;;6191374;23;20005;-90
2023/05/16 05:59:57;;;;;;;12.07;2.60;;;11.10;99.90;;;;;;6216614;23;20416;-89
2023/05/16 06:02:23;;;;;;;12.93;2.22;;;11.10;99.90;;;;;;6167283;23;20031;-89
2023/05/16 06:04:49;;;;;;;15.63;2.88;;;11.20;99.90;;;;;;6191993;23;20004;-89
2023/05/16 06:07:15;;;;;;;13.95;2.42;;;11.20;99.90;;;;;;6193078;23;20015;-88
2023/05/16 06:09:42;;;;;;;18.27;3.28;;;11.20;99.90;;;;;;6217072;23;19996;-89
2023/05/16 06:12:08;;;;;;;9.80;2.53;;;11.20;99.90;;;;;;6169312;23;20074;-89
2023/05/16 06:14:34;;;;;;;12.48;3.22;;;11.20;99.90;;;;;;6166347;23;20012;-89
2023/05/16 06:16:59;;;;;;;13.50;2.30;;;11.20;99.90;;;;;;6191249;23;20088;-88
2023/05/16 06:19:25;;;;;;;12.02;2.67;;;11.20;99.90;;;;;;6224457;23;20026;-88
2023/05/16 06:21:51;;;;;;;14.80;3.22;;;11.20;99.90;;;;;;6174977;23;20008;-88
2023/05/16 06:24:16;;;;;;;14.35;2.20;;;11.20;99.90;;;;;;6198993;23;20008;-89
2023/05/16 06:26:45;;;;;;;10.30;2.13;;;11.20;99.90;;;;;;6171240;23;20024;-90
2023/05/16 06:29:10;;;;;;;13.40;2.30;;;11.20;99.90;;;;;;6172746;23;20004;-90
2023/05/16 06:31:36;;;;;;;12.30;2.78;;;11.30;99.90;;;;;;6196042;23;20338;-89
2023/05/16 06:34:05;;;;;;;14.52;2.78;;;11.30;99.90;;;;;;6195955;23;20083;-89
2023/05/16 06:36:30;;;;;;;13.25;2.35;;;11.30;99.90;;;;;;6170514;23;20018;-89
2023/05/16 06:38:56;;;;;;;13.93;2.50;;;11.30;99.90;;;;;;6170313;23;20039;-89
2023/05/16 06:41:22;;;;;;;13.98;2.42;;;11.40;99.90;;;;;;6194980;23;20004;-89
2023/05/16 06:43:48;;;;;;;9.43;2.67;;;11.40;99.90;;;;;;6170400;23;20009;-90
2023/05/16 06:46:13;;;;;;;13.63;2.50;;;11.40;99.90;;;;;;6170646;23;20060;-89
2023/05/16 06:48:39;;;;;;;12.05;2.22;;;11.40;99.90;;;;;;6170301;23;20066;-90
2023/05/16 06:51:05;;;;;;;11.05;2.17;;;11.50;99.90;;;;;;6194807;23;20083;-89
2023/05/16 06:53:30;;;;;;;15.07;2.47;;;11.50;99.90;;;;;;6170049;23;20008;-89
2023/05/16 06:55:56;;;;;;;14.88;2.15;;;11.60;99.90;;;;;;6170591;23;20012;-89
2023/05/16 06:58:22;;;;;;;10.00;1.90;;;11.60;99.90;;;;;;6169763;23;20039;-89
2023/05/16 07:00:50;;;;;;;10.18;2.30;;;11.60;99.90;;;;;;6194753;23;20008;-90
2023/05/16 07:03:16;;;;;;;10.98;2.30;;;11.70;99.90;;;;;;6169992;23;20028;-89
2023/05/16 07:05:41;;;;;;;11.35;2.65;;;11.70;99.90;;;;;;6170334;23;20000;-88
2023/05/16 07:08:11;;;;;;;11.68;2.08;;;11.80;99.90;;;;;;6194880;23;20051;-88
2023/05/16 07:10:39;;;;;;;14.68;2.10;;;11.90;99.90;;;;;;6170190;23;20016;-89
2023/05/16 07:13:05;;;;;;;8.52;2.00;;;11.90;99.90;;;;;;6195455;23;20008;-89
2023/05/16 07:15:31;;;;;;;8.50;2.08;;;12.00;99.90;;;;;;6220112;23;20091;-88
2023/05/16 07:17:57;;;;;;;9.10;1.85;;;12.00;99.90;;;;;;6194487;23;20690;-88
2023/05/16 07:20:23;;;;;;;12.07;1.80;;;12.10;99.90;;;;;;6189920;23;20044;-87
2023/05/16 07:22:48;;;;;;;10.25;1.75;;;12.10;99.90;;;;;;6189877;23;20001;-87
2023/05/16 07:25:15;;;;;;;8.40;1.67;;;12.20;99.90;;;;;;6189604;23;20387;-87
2023/05/16 07:27:43;;;;;;;7.80;1.50;;;12.20;99.90;;;;;;6165785;23;20392;-88
2023/05/16 07:30:10;;;;;;;8.80;1.48;;;12.30;99.90;;;;;;6192624;23;20000;-89
2023/05/16 07:32:36;;;;;;;15.85;3.15;;;12.30;99.90;;;;;;6167173;23;20009;-89
2023/05/16 07:35:02;;;;;;;20.40;3.95;;;12.30;99.90;;;;;;6167847;23;20011;-89
2023/05/16 07:37:28;;;;;;;9.45;1.70;;;12.30;99.90;;;;;;6167160;23;20005;-89
2023/05/16 07:39:54;;;;;;;7.60;1.23;;;12.40;99.90;;;;;;6191938;23;20479;-88
2023/05/16 07:42:20;;;;;;;8.48;1.60;;;12.40;99.90;;;;;;6167158;23;20004;-90
2023/05/16 07:44:46;;;;;;;8.18;2.03;;;12.40;99.90;;;;;;6166903;23;20008;-89
2023/05/16 07:47:12;;;;;;;7.60;1.10;;;12.50;99.90;;;;;;6193604;23;20008;-89
2023/05/16 07:49:38;;;;;;;6.22;1.25;;;12.60;99.90;;;;;;6217373;23;20078;-88
2023/05/16 07:52:04;;;;;;;8.23;1.25;;;12.60;99.90;;;;;;6168325;23;20012;-89
2023/05/16 07:54:32;;;;;;;8.75;1.67;;;12.70;99.90;;;;;;6167995;23;20005;-88
2023/05/16 07:56:58;;;;;;;5.93;1.20;;;12.80;99.90;;;;;;6218997;23;20011;-88
2023/05/16 07:59:23;;;;;;;12.38;1.60;;;12.80;99.90;;;;;;6192002;23;20435;-89
2023/05/16 08:01:49;;;;;;;4.28;1.08;;;12.90;99.90;;;;;;6192604;23;20004;-89
2023/05/16 08:04:15;;;;;;;6.28;1.35;;;13.00;99.90;;;;;;6217046;23;20005;-89
2023/05/16 08:06:41;;;;;;;12.75;1.50;;;13.00;99.90;;;;;;6167541;23;20083;-88
2023/05/16 08:09:07;;;;;;;6.10;1.00;;;13.10;99.90;;;;;;6191856;23;20043;-89
2023/05/16 08:11:34;;;;;;;9.00;1.63;;;13.20;99.90;;;;;;6167894;23;20009;-89
2023/05/16 08:13:59;;;;;;;4.50;0.98;;;13.20;99.90;;;;;;6192423;23;20062;-89
2023/05/16 08:16:25;;;;;;;6.93;1.02;;;13.30;99.90;;;;;;6167318;23;20393;-88
2023/05/16 08:18:51;;;;;;;4.47;1.02;;;13.40;99.90;;;;;;6191488;23;20334;-88
2023/05/16 08:21:16;;;;;;;5.50;1.20;;;13.50;99.90;;;;;;6191561;23;20025;-88
2023/05/16 08:23:42;;;;;;;5.60;1.17;;;13.50;99.90;;;;;;6217348;23;20005;-89
2023/05/16 08:26:08;;;;;;;4.10;1.00;;;13.60;99.90;;;;;;6217735;23;20320;-90
2023/05/16 08:28:33;;;;;;;5.70;1.20;;;13.70;99.90;;;;;;6217298;23;20062;-90
2023/05/16 08:30:59;;;;;;;5.05;1.30;;;13.70;99.90;;;;;;6167868;23;20008;-90
2023/05/16 08:33:25;;;;;;;3.25;0.90;;;13.80;99.90;;;;;;6192174;23;20008;-89
2023/05/16 08:35:51;;;;;;;5.22;1.30;;;13.90;99.90;;;;;;6168280;23;20008;-90
2023/05/16 08:38:17;;;;;;;4.25;0.90;;;13.90;99.90;;;;;;6167573;23;20005;-90
2023/05/16 08:40:44;;;;;;;4.10;1.67;;;13.90;99.90;;;;;;6191705;23;20578;-90
2023/05/16 08:43:10;;;;;;;7.60;1.33;;;13.90;99.90;;;;;;6167390;23;20005;-90
2023/05/16 08:45:35;;;;;;;3.10;0.90;;;13.90;99.90;;;;;;6219249;23;20517;-91
2023/05/16 08:48:03;;;;;;;2.13;0.88;;;13.90;99.90;;;;;;6217452;23;20298;-90
2023/05/16 08:50:30;;;;;;;4.70;1.33;;;13.90;99.90;;;;;;6216308;23;20358;-89
2023/05/16 08:52:56;;;;;;;8.32;1.80;;;14.00;99.90;;;;;;6216231;23;20012;-88
2023/05/16 08:55:23;;;;;;;7.05;1.80;;;14.00;99.90;;;;;;6191128;23;20005;-89
2023/05/16 08:57:52;;;;;;;4.22;0.93;;;14.00;99.90;;;;;;6216330;23;20439;-88
2023/05/16 09:00:19;;;;;;;4.13;1.27;;;14.00;99.90;;;;;;6192135;23;20012;-90
2023/05/16 09:02:45;;;;;;;4.95;1.20;;;14.10;99.90;;;;;;6191860;23;20000;-88
2023/05/16 09:05:12;;;;;;;6.05;1.10;;;14.10;99.90;;;;;;6191774;23;20009;-89
2023/05/16 09:07:39;;;;;;;2.28;0.82;;;14.20;99.90;;;;;;6191877;23;20008;-88
2023/05/16 09:10:06;;;;;;;3.83;0.98;;;14.20;99.90;;;;;;6215827;23;19996;-87
2023/05/16 09:12:33;;;;;;;4.38;1.20;;;14.30;99.90;;;;;;6191815;23;20008;-87
2023/05/16 09:15:01;;;;;;;4.75;1.33;;;14.30;99.90;;;;;;6191665;23;20008;-88
2023/05/16 09:17:43;;;;;;;5.00;1.08;;;14.40;99.90;;;;;;6191308;23;20060;-89
2023/05/16 09:20:11;;;;;;;6.32;1.10;;;14.40;99.90;;;;;;6217537;23;20131;-90
2023/05/16 09:22:38;;;;;;;4.40;1.10;;;14.60;99.90;;;;;;6217319;23;20005;-90
2023/05/16 09:25:06;;;;;;;4.70;0.95;;;14.60;99.90;;;;;;6217176;23;20058;-89
2023/05/16 09:27:32;;;;;;;8.90;1.83;;;14.60;99.90;;;;;;6218680;23;20000;-91
2023/05/16 09:29:58;;;;;;;5.32;1.35;;;14.70;99.90;;;;;;6217181;23;20062;-89
2023/05/16 09:32:25;;;;;;;8.60;1.88;;;14.80;99.90;;;;;;6218102;23;20495;-91
2023/05/16 09:34:52;;;;;;;5.13;1.00;;;14.90;99.90;;;;;;6216642;23;20015;-89
2023/05/16 09:37:19;;;;;;;4.65;1.23;;;15.00;99.90;;;;;;6190728;23;20420;-88
2023/05/16 09:39:53;;;;;;;4.07;0.82;;;15.00;99.90;;;;;;6217441;23;20013;-88
2023/05/16 09:42:20;;;;;;;4.32;1.20;;;15.00;99.90;;;;;;6216756;23;20005;-91
2023/05/16 09:44:51;;;;;;;8.98;1.25;;;15.00;99.90;;;;;;6192544;23;20040;-93
2023/05/16 09:47:18;;;;;;;6.28;1.15;;;15.00;99.90;;;;;;6217174;23;20058;-91
2023/05/16 09:49:45;;;;;;;4.60;1.45;;;15.10;99.90;;;;;;6193385;23;20005;-92
2023/05/16 09:52:12;;;;;;;8.57;1.27;;;15.10;99.90;;;;;;6219683;23;20028;-91
2023/05/16 09:54:38;;;;;;;3.63;0.90;;;15.10;99.90;;;;;;6194749;23;20039;-91
2023/05/16 09:57:05;;;;;;;4.38;0.95;;;15.20;99.90;;;;;;6166645;23;20004;-89
2023/05/16 09:59:38;;;;;;;5.97;1.20;;;15.20;99.90;;;;;;6167969;23;20016;-90
2023/05/16 10:02:06;;;;;;;6.05;1.20;;;15.20;99.90;;;;;;6192015;23;20015;-90
2023/05/16 10:04:35;;;;;;;5.57;0.90;;;15.30;99.90;;;;;;6216821;23;20000;-88
2023/05/16 10:07:05;;;;;;;4.00;1.00;;;15.30;99.90;;;;;;6190912;23;20083;-88
2023/05/16 10:09:35;;;;;;;6.60;1.30;;;15.30;99.90;;;;;;6215495;23;20387;-88
2023/05/16 10:12:09;;;;;;;6.30;1.40;;;15.40;99.90;;;;;;6165987;23;20020;-89
2023/05/16 10:14:40;;;;;;;7.60;1.27;;;15.40;99.90;;;;;;6217368;23;20004;-92
2023/05/16 10:17:07;;;;;;;4.78;1.13;;;15.50;99.90;;;;;;6193225;23;20009;-92
2023/05/16 10:19:37;;;;;;;4.15;1.15;;;15.60;99.90;;;;;;6219688;23;20012;-92
2023/05/16 10:22:05;;;;;;;5.87;0.97;;;15.60;99.90;;;;;;6219540;23;20009;-91
2023/05/16 10:24:54;;;;;;;7.03;1.73;;;15.70;99.90;;;;;;6169632;23;20471;-91
2023/05/16 10:27:20;;;;;;;4.00;0.90;;;15.80;99.90;;;;;;6218958;23;19996;-89
2023/05/16 10:29:47;;;;;;;6.05;1.25;;;15.80;99.90;;;;;;6192435;23;20029;-89
2023/05/16 10:32:14;;;;;;;6.22;1.42;;;15.80;99.90;;;;;;6169638;23;20092;-91
2023/05/16 10:34:40;;;;;;;5.78;1.40;;;15.80;99.90;;;;;;6193419;23;20013;-90
2023/05/16 10:37:07;;;;;;;5.57;1.40;;;15.90;99.90;;;;;;6168263;23;20479;-91
2023/05/16 10:39:34;;;;;;;5.63;1.27;;;15.90;99.90;;;;;;6216887;23;20305;-91
2023/05/16 10:41:59;;;;;;;4.97;0.90;;;15.90;99.90;;;;;;6166806;23;20000;-89
2023/05/16 10:44:25;;;;;;;4.25;1.15;;;15.90;99.90;;;;;;6191168;23;20316;-89
2023/05/16 10:46:51;;;;;;;3.53;0.98;;;16.00;99.90;;;;;;6217113;23;20301;-89
2023/05/16 10:49:22;;;;;;;6.30;1.30;;;16.10;99.90;;;;;;6192451;23;20004;-90
2023/05/16 10:52:07;;;;;;;6.40;1.25;;;16.10;99.90;;;;;;6217501;23;20041;-89
2023/05/16 10:54:35;;;;;;;4.60;1.20;;;16.20;99.90;;;;;;6217356;23;20039;-90
2023/05/16 10:57:16;;;;;;;5.78;1.25;;;16.20;99.90;;;;;;6192135;23;20340;-89
2023/05/16 10:59:47;;;;;;;3.00;0.98;;;16.30;99.90;;;;;;6217093;23;20036;-89
2023/05/16 11:02:25;;;;;;;;;;;16.30;99.90;;;;;;6218684;23;20001;-89
2023/05/16 11:04:55;;;;;;;4.03;1.08;;;16.30;99.90;;;;;;6218410;23;19900;-91
2023/05/16 11:07:25;;;;;;;5.93;1.10;;;16.30;99.90;;;;;;6218438;23;20023;-92
2023/05/16 11:10:14;;;;;;;5.85;1.30;;;16.30;99.90;;;;;;6218848;23;20003;-91
2023/05/16 11:12:52;;;;;;;4.40;1.20;;;16.40;99.90;;;;;;6198158;23;20070;-91
2023/05/16 11:15:33;;;;;;;6.25;1.13;;;16.40;99.90;;;;;;6194102;23;20017;-89
2023/05/16 11:18:15;;;;;;;4.93;1.27;;;16.40;99.90;;;;;;6219635;23;20005;-90
2023/05/16 11:20:42;;;;;;;5.97;1.40;;;16.40;99.90;;;;;;6169114;23;20024;-91
2023/05/16 11:23:16;;;;;;;5.28;1.48;;;16.40;99.90;;;;;;6218704;23;20087;-90
2023/05/16 11:25:44;;;;;;;6.82;1.23;;;16.40;99.90;;;;;;6219307;23;20008;-91
2023/05/16 11:28:12;;;;;;;4.10;1.02;;;16.40;99.90;;;;;;6194655;23;20028;-92
2023/05/16 11:30:48;;;;;;;8.27;1.58;;;16.40;99.90;;;;;;6195353;23;20017;-94
2023/05/16 11:33:15;;;;;;;7.78;1.45;;;16.50;99.90;;;;;;6218948;23;20004;-92
2023/05/16 11:35:41;;;;;;;4.80;1.27;;;16.60;99.90;;;;;;6195142;23;20063;-90
2023/05/16 11:38:13;;;;;;;3.58;1.13;;;16.60;99.90;;;;;;6194284;23;20043;-92
2023/05/16 11:40:44;;;;;;;5.18;1.30;;;16.60;99.90;;;;;;6196274;23;20033;-91
2023/05/16 11:43:17;;;;;;;4.35;1.20;;;16.70;99.90;;;;;;6200017;23;20028;-90
2023/05/16 11:45:42;;;;;;;4.93;1.38;;;16.70;99.90;;;;;;6201964;23;20024;-91
2023/05/16 11:48:08;;;;;;;4.32;1.00;;;16.80;99.90;;;;;;6221131;23;20051;-91
2023/05/16 11:50:35;;;;;;;5.22;1.45;;;16.80;99.90;;;;;;6194696;23;20428;-90
2023/05/16 11:53:00;;;;;;;3.42;1.30;;;16.80;99.90;;;;;;6219772;23;20424;-91
2023/05/16 11:55:31;;;;;;;5.93;1.10;;;16.80;99.90;;;;;;6170804;23;20016;-90
2023/05/16 11:57:58;;;;;;;5.75;1.50;;;16.80;99.90;;;;;;6198961;23;20384;-92
2023/05/16 12:00:25;;;;;;;8.25;1.80;;;16.80;99.90;;;;;;6197090;23;20005;-91
2023/05/16 12:03:03;;;;;;;4.07;0.82;;;16.80;99.90;;;;;;6198216;23;20511;-90
2023/05/16 12:05:30;;;;;;;6.57;1.65;;;16.80;99.90;;;;;;6222316;23;20081;-91
2023/05/16 12:08:04;;;;;;;4.03;1.30;;;16.80;99.90;;;;;;6196139;23;20007;-94
2023/05/16 12:10:32;;;;;;;4.47;1.35;;;16.80;99.90;;;;;;6195538;23;20096;-92
2023/05/16 12:13:02;;;;;;;4.60;1.00;;;16.90;99.90;;;;;;6194926;23;20092;-95
2023/05/16 12:15:38;;;;;;;5.78;1.30;;;17.00;99.90;;;;;;6220616;23;20415;-95
2023/05/16 12:18:08;;;;;;;6.03;1.15;;;17.00;99.90;;;;;;6196443;23;20008;-92
2023/05/16 12:20:51;;;;;;;5.93;1.63;;;17.00;99.90;;;;;;6219482;23;20036;-95
2023/05/16 12:23:25;;;;;;;5.47;1.65;;;17.10;99.90;;;;;;6197265;23;20015;-95
2023/05/16 12:26:09;;;;;;;6.32;1.55;;;17.10;99.90;;;;;;6197574;23;20005;-89
2023/05/16 12:28:37;;;;;;;2.40;1.05;;;17.00;99.90;;;;;;6196747;23;20015;-89
2023/05/16 12:31:03;;;;;;;5.53;1.48;;;17.10;99.90;;;;;;6217695;23;20051;-89
2023/05/16 12:33:36;;;;;;;6.00;1.35;;;17.10;99.90;;;;;;6192197;23;20032;-90
2023/05/16 12:36:20;;;;;;;6.45;1.40;;;17.20;99.90;;;;;;6218062;23;20011;-89
2023/05/16 12:38:55;;;;;;;3.55;1.40;;;17.20;99.90;;;;;;6193313;23;20011;-89
2023/05/16 12:44:13;;;;;;;5.97;1.70;;;17.20;99.90;;;;;;6229539;23;20005;-93
2023/05/16 12:46:57;;;;;;;6.55;1.42;;;17.30;99.90;;;;;;6237871;23;19981;-95
2023/05/16 12:49:36;;;;;;;9.05;2.08;;;17.30;99.90;;;;;;6211717;23;20001;-94
2023/05/16 12:52:04;;;;;;;5.32;1.48;;;17.30;99.90;;;;;;6209310;23;20015;-94